createdAt,value
2022-12-27T00:02:48.768Z,3.27
2022-12-27T00:08:15.540Z,0.70
2022-12-27T00:11:07.713Z,2.50
2022-12-27T00:16:44.860Z,1.90
2022-12-27T00:22:25.974Z,2.93
2022-12-27T00:25:14.318Z,1.73
2022-12-27T00:28:03.153Z,2.27
2022-12-27T00:33:57.482Z,2.70
2022-12-27T00:39:32.479Z,1.40
2022-12-27T00:45:08.526Z,2.47
2022-12-27T00:47:59.965Z,1.30
2022-12-27T00:50:48.505Z,0.87
2022-12-27T00:53:37.494Z,2.17
2022-12-27T00:56:28.168Z,0.83
2022-12-27T00:59:19.509Z,1.83
2022-12-27T01:02:08.638Z,1.87
2022-12-27T01:07:44.994Z,3.00
2022-12-27T01:13:13.410Z,2.50
2022-12-27T01:18:51.124Z,5.37
2022-12-27T01:24:29.164Z,3.10
2022-12-27T01:30:06.250Z,4.03
2022-12-27T01:35:41.342Z,1.93
2022-12-27T01:38:29.633Z,2.37
2022-12-27T01:41:38.647Z,3.77
2022-12-27T01:44:56.084Z,2.40
2022-12-27T01:50:36.279Z,3.47
2022-12-27T01:53:26.650Z,1.43
2022-12-27T01:59:07.549Z,3.20
2022-12-27T02:04:42.786Z,2.70
2022-12-27T02:10:14.069Z,2.27
2022-12-27T02:15:44.689Z,1.50
2022-12-27T02:18:34.240Z,2.33
2022-12-27T02:22:15.229Z,4.20
2022-12-27T02:28:08.916Z,1.97
2022-12-27T02:33:52.827Z,4.47
2022-12-27T02:39:24.768Z,3.27
2022-12-27T02:45:18.231Z,1.73
2022-12-27T02:48:27.065Z,2.23
2022-12-27T02:54:01.989Z,1.60
2022-12-27T03:00:20.795Z,3.80
2022-12-27T03:06:41.728Z,1.00
2022-12-27T03:12:46.772Z,3.83
2022-12-27T03:18:38.611Z,4.60
2022-12-27T03:24:35.597Z,1.40
2022-12-27T03:30:29.163Z,4.10
2022-12-27T03:36:26.255Z,2.40
2022-12-27T03:42:17.169Z,2.43
2022-12-27T03:45:06.781Z,2.20
2022-12-27T03:50:45.962Z,3.63
2022-12-27T03:56:19.936Z,4.20
2022-12-27T04:02:04.418Z,3.23
2022-12-27T04:04:53.947Z,1.40
2022-12-27T04:10:48.490Z,2.57
2022-12-27T04:13:54.783Z,1.97
2022-12-27T04:19:46.305Z,1.53
2022-12-27T04:22:52.440Z,7.07
2022-12-27T04:28:41.867Z,4.83
2022-12-27T04:31:47.796Z,3.20
2022-12-27T04:34:43.031Z,3.30
2022-12-27T04:40:36.930Z,2.03
2022-12-27T04:43:42.918Z,3.70
2022-12-27T04:49:32.947Z,2.60
2022-12-27T04:52:41.053Z,2.57
2022-12-27T04:58:16.748Z,3.60
2022-12-27T05:03:48.855Z,3.23
2022-12-27T05:06:37.070Z,5.27
2022-12-27T05:12:29.791Z,3.20
2022-12-27T05:15:18.038Z,3.53
2022-12-27T05:20:52.130Z,4.13
2022-12-27T05:24:05.224Z,1.87
2022-12-27T05:29:32.474Z,2.03
2022-12-27T05:35:01.066Z,3.87
2022-12-27T05:37:54.872Z,4.40
2022-12-27T05:40:41.431Z,2.37
2022-12-27T05:43:30.202Z,2.23
2022-12-27T05:49:01.990Z,3.53
2022-12-27T05:54:32.143Z,3.73
2022-12-27T05:57:20.385Z,2.07
2022-12-27T06:00:12.467Z,3.57
2022-12-27T06:05:45.095Z,3.23
2022-12-27T06:11:22.090Z,3.23
2022-12-27T06:16:55.057Z,3.23
2022-12-27T06:19:43.907Z,1.80
2022-12-27T06:25:24.287Z,2.73
2022-12-27T06:28:14.329Z,2.40
2022-12-27T06:33:44.456Z,3.27
2022-12-27T06:39:16.958Z,2.37
2022-12-27T06:42:05.495Z,3.67
2022-12-27T06:44:54.955Z,2.80
2022-12-27T06:50:30.499Z,4.03
2022-12-27T06:53:19.631Z,1.47
2022-12-27T06:56:10.783Z,1.93
2022-12-27T07:04:23.043Z,2.77
2022-12-27T07:09:58.137Z,2.20
2022-12-27T07:12:46.814Z,1.00
2022-12-27T07:18:19.907Z,1.53
2022-12-27T07:23:48.813Z,1.70
2022-12-27T07:26:37.198Z,3.00
2022-12-27T07:32:08.248Z,4.80
2022-12-27T07:34:56.374Z,4.20
2022-12-27T07:40:32.976Z,1.53
2022-12-27T07:43:21.294Z,3.80
2022-12-27T07:48:56.696Z,2.60
2022-12-27T07:54:31.659Z,6.23
2022-12-27T08:00:03.780Z,2.33
2022-12-27T08:05:34.268Z,2.30
2022-12-27T08:08:26.166Z,3.03
2022-12-27T08:11:14.453Z,2.23
2022-12-27T08:16:49.855Z,2.10
2022-12-27T08:22:24.303Z,1.13
2022-12-27T08:25:12.876Z,3.83
2022-12-27T08:28:05.922Z,1.97
2022-12-27T08:30:54.474Z,4.57
2022-12-27T08:33:43.252Z,3.60
2022-12-27T08:39:30.007Z,1.90
2022-12-27T08:47:54.417Z,1.63
2022-12-27T08:53:31.294Z,2.40
2022-12-27T08:59:10.063Z,2.07
2022-12-27T09:01:59.678Z,2.40
2022-12-27T09:07:31.490Z,3.17
2022-12-27T09:15:50.656Z,3.43
2022-12-27T09:21:28.135Z,3.30
2022-12-27T09:24:16.619Z,2.57
2022-12-27T09:32:34.164Z,2.13
2022-12-27T09:35:22.509Z,0.87
2022-12-27T09:38:12.649Z,2.93
2022-12-27T09:46:44.668Z,2.77
2022-12-27T09:52:22.956Z,1.40
2022-12-27T10:09:39.808Z,1.33
2022-12-27T10:18:15.269Z,4.63
2022-12-27T10:29:31.421Z,1.40
2022-12-27T10:35:13.541Z,4.07
2022-12-27T10:43:44.904Z,3.20
2022-12-27T10:46:34.025Z,2.30
2022-12-27T10:52:11.845Z,1.80
2022-12-27T10:57:59.195Z,4.27
2022-12-27T11:14:38.927Z,2.33
2022-12-27T11:23:22.059Z,1.60
2022-12-27T11:32:16.616Z,2.43
2022-12-27T11:37:47.863Z,1.53
2022-12-27T11:43:25.648Z,3.07
2022-12-27T11:49:09.717Z,2.73
2022-12-27T11:55:49.160Z,1.70
2022-12-27T12:02:24.665Z,2.17
2022-12-27T12:05:39.808Z,2.97
2022-12-27T12:15:25.929Z,3.10
2022-12-27T12:21:26.451Z,1.70
2022-12-27T12:24:55.803Z,2.47
2022-12-27T12:30:48.399Z,1.37
2022-12-27T12:37:20.872Z,2.00
2022-12-27T12:40:36.746Z,3.80
2022-12-27T12:43:40.563Z,1.47
2022-12-27T12:50:46.081Z,2.47
2022-12-27T12:58:31.051Z,2.17
2022-12-27T13:04:07.795Z,2.60
2022-12-27T13:12:38.048Z,2.00
2022-12-27T13:18:15.835Z,0.80
2022-12-27T13:24:04.136Z,1.50
2022-12-27T13:29:42.684Z,0.70
2022-12-27T13:35:16.276Z,1.63
2022-12-27T13:43:51.096Z,3.03
2022-12-27T13:49:45.858Z,2.60
2022-12-27T13:55:38.786Z,1.63
2022-12-27T14:01:34.500Z,2.20
2022-12-27T14:07:08.692Z,1.73
2022-12-27T14:12:56.769Z,1.23
2022-12-27T14:18:36.061Z,0.97
2022-12-27T14:24:04.357Z,1.77
2022-12-27T14:33:43.562Z,0.93
2022-12-27T14:39:36.730Z,1.00
2022-12-27T14:45:27.849Z,1.63
2022-12-27T14:48:02.400Z,2.97
2022-12-27T14:54:07.025Z,2.63
2022-12-27T14:59:32.465Z,1.77
2022-12-27T15:02:09.040Z,1.80
2022-12-27T15:04:51.889Z,1.40
2022-12-27T15:10:33.592Z,3.77
2022-12-27T15:15:54.308Z,1.90
2022-12-27T15:21:41.403Z,1.53
2022-12-27T15:26:58.440Z,3.27
2022-12-27T15:32:29.489Z,2.60
2022-12-27T15:41:08.140Z,1.43
2022-12-27T15:44:01.096Z,1.77
2022-12-27T15:49:53.261Z,1.80
2022-12-27T15:52:27.585Z,3.00
2022-12-27T15:58:06.985Z,2.80
2022-12-27T16:03:36.060Z,2.70
2022-12-27T16:08:47.765Z,1.67
2022-12-27T16:14:25.264Z,1.67
2022-12-27T16:16:58.157Z,1.60
2022-12-27T16:22:30.732Z,4.20
2022-12-27T16:25:01.258Z,1.90
2022-12-27T16:27:33.394Z,4.73
2022-12-27T16:30:04.205Z,3.03
2022-12-27T16:35:24.582Z,3.90
2022-12-27T16:40:46.478Z,2.27
2022-12-27T16:43:41.865Z,3.47
2022-12-27T16:46:35.795Z,2.43
2022-12-27T16:52:55.063Z,1.73
2022-12-27T16:58:37.318Z,3.20
2022-12-27T17:04:06.886Z,4.30
2022-12-27T17:09:49.603Z,3.47
2022-12-27T17:20:43.427Z,7.17
2022-12-27T17:29:45.725Z,3.23
2022-12-27T17:37:48.368Z,25.60
2022-12-27T17:46:18.232Z,9.87
2022-12-27T17:48:48.101Z,19.77
2022-12-27T17:54:41.814Z,18.23
2022-12-27T17:59:53.899Z,4.13
2022-12-27T18:05:15.660Z,4.20
2022-12-27T18:10:35.633Z,4.43
2022-12-27T18:15:54.772Z,6.50
2022-12-27T18:18:27.677Z,9.03
2022-12-27T18:21:00.625Z,7.03
2022-12-27T18:26:15.840Z,7.90
2022-12-27T18:31:40.660Z,6.03
2022-12-27T18:37:06.629Z,4.97
2022-12-27T18:39:39.673Z,5.83
2022-12-27T18:44:53.519Z,4.03
2022-12-27T18:50:16.759Z,8.13
2022-12-27T18:55:35.748Z,6.20
2022-12-27T19:00:57.239Z,6.57
2022-12-27T19:06:16.657Z,5.43
2022-12-27T19:11:36.320Z,4.53
2022-12-27T19:14:05.544Z,3.87
2022-12-27T19:19:27.586Z,7.10
2022-12-27T19:24:39.889Z,5.90
2022-12-27T19:32:48.756Z,3.97
2022-12-27T19:38:02.310Z,4.67
2022-12-27T19:40:34.301Z,5.47
2022-12-27T19:45:53.792Z,8.13
2022-12-27T19:51:02.054Z,5.83
2022-12-27T19:56:18.796Z,6.60
2022-12-27T20:04:13.104Z,6.77
2022-12-27T20:06:44.039Z,5.73
2022-12-27T20:11:57.843Z,6.23
2022-12-27T20:20:00.041Z,5.53
2022-12-27T20:25:15.962Z,6.47
2022-12-27T20:30:32.924Z,7.23
2022-12-27T20:35:59.565Z,10.73
2022-12-27T20:41:12.406Z,8.70
2022-12-27T20:46:22.463Z,8.53
2022-12-27T20:51:36.053Z,8.83
2022-12-27T20:57:05.816Z,7.83
2022-12-27T20:59:36.580Z,7.40
2022-12-27T21:05:38.033Z,9.07
2022-12-27T21:08:09.324Z,7.33
2022-12-27T21:13:27.907Z,9.27
2022-12-27T21:19:03.746Z,9.10
2022-12-27T21:21:34.587Z,12.37
2022-12-27T21:26:56.221Z,11.73
2022-12-27T21:29:30.601Z,13.87
2022-12-27T21:34:48.465Z,16.93
2022-12-27T21:40:14.565Z,16.93
2022-12-27T21:45:32.468Z,15.17
2022-12-27T21:48:02.652Z,16.87
2022-12-27T21:50:37.252Z,15.03
2022-12-27T21:53:05.153Z,14.90
2022-12-27T21:58:25.150Z,15.43
2022-12-27T22:03:45.593Z,12.63
2022-12-27T22:06:18.494Z,14.03
2022-12-27T22:11:36.679Z,17.17
2022-12-27T22:16:53.387Z,17.10
2022-12-27T22:19:29.667Z,18.23
2022-12-27T22:24:51.837Z,18.33
2022-12-27T22:27:22.615Z,16.90
2022-12-27T22:29:52.549Z,17.97
2022-12-27T22:32:24.153Z,20.37
2022-12-27T22:37:36.141Z,16.73
2022-12-27T22:40:07.295Z,18.20
2022-12-27T22:45:27.932Z,16.80
2022-12-27T22:47:59.205Z,13.47
2022-12-27T22:53:11.668Z,12.87
2022-12-27T22:55:45.605Z,14.90
2022-12-27T23:01:04.348Z,13.67
2022-12-27T23:03:35.040Z,13.57
2022-12-27T23:09:04.012Z,12.87
2022-12-27T23:14:28.123Z,15.37
2022-12-27T23:19:43.310Z,11.43
2022-12-27T23:24:59.792Z,12.93
2022-12-27T23:27:29.514Z,13.43
2022-12-27T23:32:40.810Z,13.33
2022-12-27T23:35:11.327Z,12.13
2022-12-27T23:37:40.897Z,12.90
2022-12-27T23:43:32.916Z,11.37
2022-12-27T23:48:25.934Z,9.37
2022-12-27T23:56:34.385Z,8.37
